PAED METAR and TAF weather

Enter ICAO airport designator
Station Type Date Time Source
PAED METAR 2022/12/04 03:55 UTC NOAA

PAED 040355Z 00000KT 10SM FEW003 SCT150 M09/M11 A3034 RMK AO2A SLP274 T10931107


Station Type Date Time Source
PAED Decoded METAR 2022/12/04 03:55 UTC NOAA

Anchorage, Elmendorf Air Force Base, AK, United States (PAED) 61-15-11N 149-47-38W 59M
Dec 03, 2022 - 10:55 PM EST / 2022.12.04 0355 UTC
Wind: Calm:0
Visibility: 10 mile(s):0
Sky conditions: partly cloudy
Temperature: 15.3 F (-9.3 C)
Dew Point: 12.7 F (-10.7 C)
Relative Humidity: 89%
Pressure (altimeter): 30.34 in. Hg (1027 hPa)
ob: PAED 040355Z 00000KT 10SM FEW003 SCT150 M09/M11 A3034 RMK AO2A SLP274 T10931107
cycle: 4

Station Type Date Time Source
PAED TAF 2022/12/03 22:08 UTC NOAA

TAF PAED 032200Z 0322/0504 02006KT 9999 FEW005 SCT070 BKN120 OVC200 QNH3033INS
BECMG 0415/0416 04006KT 9999 FEW003 FEW020 SCT200 QNH3028INS TXM06/0323Z TNM11/0418Z

Example: see airport list